METAR AND TAF INFORMATION
METAR FOR LGSY
ADDS - METARS form results

(0637 UTC 15 September 2019)
Data provider http://aviationweather.gov/metar/data/
 
METAR text: LGSY 150620Z 02017KT CAVOK 24/14 Q1022
Conditions at: LGSY (SKIROS , GR) observed 0620 UTC 15 September 2019
Temperature: 24.0°C (75°F)
Dewpoint: 14.0°C (57°F) [RH = 54%]
Pressure (altimeter): 30.18 inches Hg (1022.0 mb)
Winds: from the NNE (20 degrees) at 20 MPH (17 knots; 8.7 m/s)
Visibility: 6 or more miles (10+ km)
Ceiling: ceiling and visibility are OK
Clouds: unknown
Weather: no significant weather observed at this time

METAR text: LGSY 150550Z 01018KT CAVOK 24/14 Q1022
Conditions at: LGSY (SKIROS , GR) observed 0550 UTC 15 September 2019
Temperature: 24.0°C (75°F)
Dewpoint: 14.0°C (57°F) [RH = 54%]
Pressure (altimeter): 30.18 inches Hg (1022.0 mb)
Winds: from the N (10 degrees) at 21 MPH (18 knots; 9.3 m/s)
Visibility: 6 or more miles (10+ km)
Ceiling: ceiling and visibility are OK
Clouds: unknown
Weather: no significant weather observed at this time

Forecast for: LGSY (SKIROS , GR)
Text: TAF LGSY 150500Z 1506/1515 03015G30KT CAVOK
Forecast period: 0600 to 1500 UTC 15 September 2019
Forecast type: FROM: standard forecast or significant change
Winds: from the NNE (30 degrees) at 17 MPH (15 knots; 7.7 m/s)
gusting to 34 MPH (30 knots; 15.4 m/s)
Visibility: 6 or more miles 10+ km)
Ceiling: unknown
Clouds: missing
Weather: NSW  (no significant weather)

 ΧΑΡΤΗΣ ΑΕΡΟΔΡΟΜΙΟΥ

 RUNWAY INFORMATION
Διάδρομος 18 Runway length 9849 ft Runway width 98 ft
Runway elevation 14 ft Runway displaced threshold 541 ft Runway heading 176
Διάδρομος 36 Runway length 9849 ft Runway width 98 ft
Runway elevation 39 ft Runway displaced threshold 2625 ft Runway heading 356

 ΣΥΧΝΟΤΗΤΕΣ ΑΕΡΟΔΡΟΜΙΟΥ
Τύπος A/G Όνομα RDO Συχνότητα 563.7 MHZ
Τύπος APP Όνομα APP Συχνότητα 123.2 MHZ
Τύπος TWR Όνομα TWR Συχνότητα 123.2 MHZ

 AIRPORT NEAR NAVIGATION AIDS
Τύπος VOR-DME Όνομα Skiros Συχνότητα 116600 KHZ
Τύπος TACAN Όνομα Skyros Συχνότητα 116100 KHZ



Hellenic Air Force Virtual - All rights reserved 2019 - Powered by VAM